sensor_id;sensor_type;location;lat;lon;timestamp;temperature;humidity
71237;DHT22;58984;51.960;5.582;2023-04-01T00:01:07;15.80;64.30
71237;DHT22;58984;51.960;5.582;2023-04-01T00:03:33;15.80;65.20
71237;DHT22;58984;51.960;5.582;2023-04-01T00:06:00;15.80;64.40
71237;DHT22;58984;51.960;5.582;2023-04-01T00:08:27;15.80;64.50
71237;DHT22;58984;51.960;5.582;2023-04-01T00:10:53;15.80;64.50
71237;DHT22;58984;51.960;5.582;2023-04-01T00:13:19;15.80;64.40
71237;DHT22;58984;51.960;5.582;2023-04-01T00:15:46;15.80;64.40
71237;DHT22;58984;51.960;5.582;2023-04-01T00:18:11;15.80;64.50
71237;DHT22;58984;51.960;5.582;2023-04-01T00:20:38;15.80;64.50
71237;DHT22;58984;51.960;5.582;2023-04-01T00:23:03;15.80;65.40
71237;DHT22;58984;51.960;5.582;2023-04-01T00:25:30;15.80;64.70
71237;DHT22;58984;51.960;5.582;2023-04-01T00:27:56;15.80;64.50
71237;DHT22;58984;51.960;5.582;2023-04-01T00:30:21;15.70;64.40
71237;DHT22;58984;51.960;5.582;2023-04-01T00:32:51;15.80;64.50
71237;DHT22;58984;51.960;5.582;2023-04-01T00:35:17;15.80;64.60
71237;DHT22;58984;51.960;5.582;2023-04-01T00:37:43;15.80;64.50
71237;DHT22;58984;51.960;5.582;2023-04-01T00:40:28;15.80;64.50
71237;DHT22;58984;51.960;5.582;2023-04-01T00:42:54;15.70;64.60
71237;DHT22;58984;51.960;5.582;2023-04-01T00:47:52;15.80;64.70
71237;DHT22;58984;51.960;5.582;2023-04-01T00:50:19;15.70;64.40
71237;DHT22;58984;51.960;5.582;2023-04-01T00:52:44;15.80;64.60
71237;DHT22;58984;51.960;5.582;2023-04-01T00:55:11;15.80;64.60
71237;DHT22;58984;51.960;5.582;2023-04-01T00:57:39;15.80;64.70
71237;DHT22;58984;51.960;5.582;2023-04-01T01:00:10;15.70;64.60
71237;DHT22;58984;51.960;5.582;2023-04-01T01:02:36;15.70;64.70
71237;DHT22;58984;51.960;5.582;2023-04-01T01:05:02;15.80;64.70
71237;DHT22;58984;51.960;5.582;2023-04-01T01:07:52;15.80;64.70
71237;DHT22;58984;51.960;5.582;2023-04-01T01:10:35;15.70;64.70
71237;DHT22;58984;51.960;5.582;2023-04-01T01:15:59;15.70;64.60
71237;DHT22;58984;51.960;5.582;2023-04-01T01:18:58;15.70;64.70
71237;DHT22;58984;51.960;5.582;2023-04-01T01:27:09;15.70;64.50
71237;DHT22;58984;51.960;5.582;2023-04-01T01:37:35;15.70;64.70
71237;DHT22;58984;51.960;5.582;2023-04-01T01:40:04;15.70;64.50
71237;DHT22;58984;51.960;5.582;2023-04-01T01:42:34;15.70;64.60
71237;DHT22;58984;51.960;5.582;2023-04-01T01:45:02;15.70;64.70
71237;DHT22;58984;51.960;5.582;2023-04-01T01:47:29;15.70;64.60
71237;DHT22;58984;51.960;5.582;2023-04-01T01:49:55;15.70;64.50
71237;DHT22;58984;51.960;5.582;2023-04-01T01:52:23;15.70;64.60
71237;DHT22;58984;51.960;5.582;2023-04-01T01:54:49;15.70;64.50
71237;DHT22;58984;51.960;5.582;2023-04-01T01:57:17;15.70;64.40
71237;DHT22;58984;51.960;5.582;2023-04-01T01:59:45;15.70;64.50
71237;DHT22;58984;51.960;5.582;2023-04-01T02:02:11;15.70;64.40
71237;DHT22;58984;51.960;5.582;2023-04-01T02:04:40;15.70;64.40
71237;DHT22;58984;51.960;5.582;2023-04-01T02:07:18;15.70;64.30
71237;DHT22;58984;51.960;5.582;2023-04-01T02:09:46;15.70;64.30
71237;DHT22;58984;51.960;5.582;2023-04-01T02:12:14;15.70;64.30
71237;DHT22;58984;51.960;5.582;2023-04-01T02:14:47;15.70;64.20
71237;DHT22;58984;51.960;5.582;2023-04-01T02:17:19;15.70;64.40
71237;DHT22;58984;51.960;5.582;2023-04-01T02:19:50;15.60;64.30
71237;DHT22;58984;51.960;5.582;2023-04-01T02:22:20;15.60;64.30
71237;DHT22;58984;51.960;5.582;2023-04-01T02:24:47;15.60;64.40
71237;DHT22;58984;51.960;5.582;2023-04-01T02:27:14;15.70;64.30
71237;DHT22;58984;51.960;5.582;2023-04-01T02:29:39;15.70;64.40
71237;DHT22;58984;51.960;5.582;2023-04-01T02:32:06;15.70;64.30
71237;DHT22;58984;51.960;5.582;2023-04-01T02:34:32;15.60;64.30
71237;DHT22;58984;51.960;5.582;2023-04-01T02:36:58;15.60;64.30
71237;DHT22;58984;51.960;5.582;2023-04-01T02:39:24;15.70;64.40
71237;DHT22;58984;51.960;5.582;2023-04-01T02:41:51;15.70;64.40
71237;DHT22;58984;51.960;5.582;2023-04-01T02:44:17;15.70;64.40
71237;DHT22;58984;51.960;5.582;2023-04-01T02:46:42;15.70;64.40
71237;DHT22;58984;51.960;5.582;2023-04-01T02:49:08;15.60;64.30
71237;DHT22;58984;51.960;5.582;2023-04-01T02:51:34;15.60;64.20
71237;DHT22;58984;51.960;5.582;2023-04-01T02:54:00;15.70;64.30
71237;DHT22;58984;51.960;5.582;2023-04-01T02:56:26;15.60;64.20
71237;DHT22;58984;51.960;5.582;2023-04-01T02:58:52;15.70;64.40
71237;DHT22;58984;51.960;5.582;2023-04-01T03:01:18;15.60;64.30
71237;DHT22;58984;51.960;5.582;2023-04-01T03:03:44;15.60;64.30
71237;DHT22;58984;51.960;5.582;2023-04-01T03:06:12;15.70;64.30
71237;DHT22;58984;51.960;5.582;2023-04-01T03:08:38;15.60;64.30
71237;DHT22;58984;51.960;5.582;2023-04-01T03:11:04;15.60;64.30
71237;DHT22;58984;51.960;5.582;2023-04-01T03:13:30;15.60;64.40
71237;DHT22;58984;51.960;5.582;2023-04-01T03:15:56;15.60;65.10
71237;DHT22;58984;51.960;5.582;2023-04-01T03:18:21;15.60;64.20
71237;DHT22;58984;51.960;5.582;2023-04-01T03:20:47;15.60;64.30
71237;DHT22;58984;51.960;5.582;2023-04-01T03:23:13;15.60;64.30
71237;DHT22;58984;51.960;5.582;2023-04-01T03:25:39;15.60;64.30
71237;DHT22;58984;51.960;5.582;2023-04-01T03:28:05;15.60;64.40
71237;DHT22;58984;51.960;5.582;2023-04-01T03:30:30;15.60;64.30
71237;DHT22;58984;51.960;5.582;2023-04-01T03:32:57;15.60;64.30
71237;DHT22;58984;51.960;5.582;2023-04-01T03:35:23;15.60;64.30
71237;DHT22;58984;51.960;5.582;2023-04-01T03:37:50;15.60;64.40
71237;DHT22;58984;51.960;5.582;2023-04-01T03:40:16;15.50;64.20
71237;DHT22;58984;51.960;5.582;2023-04-01T03:42:41;15.60;64.30
71237;DHT22;58984;51.960;5.582;2023-04-01T03:45:07;15.60;64.30
71237;DHT22;58984;51.960;5.582;2023-04-01T03:47:33;15.60;64.20
71237;DHT22;58984;51.960;5.582;2023-04-01T03:49:59;15.60;64.30
71237;DHT22;58984;51.960;5.582;2023-04-01T03:52:24;15.60;64.30
71237;DHT22;58984;51.960;5.582;2023-04-01T03:54:50;15.50;64.30
71237;DHT22;58984;51.960;5.582;2023-04-01T03:57:16;15.50;64.20
71237;DHT22;58984;51.960;5.582;2023-04-01T03:59:41;15.60;64.30
71237;DHT22;58984;51.960;5.582;2023-04-01T04:02:07;15.50;64.30
71237;DHT22;58984;51.960;5.582;2023-04-01T04:04:33;15.50;64.30
71237;DHT22;58984;51.960;5.582;2023-04-01T04:06:59;15.50;64.20
71237;DHT22;58984;51.960;5.582;2023-04-01T04:09:24;15.50;64.20
71237;DHT22;58984;51.960;5.582;2023-04-01T04:11:50;15.60;64.20
71237;DHT22;58984;51.960;5.582;2023-04-01T04:14:16;15.50;64.20
71237;DHT22;58984;51.960;5.582;2023-04-01T04:16:41;15.60;64.30
71237;DHT22;58984;51.960;5.582;2023-04-01T04:19:07;15.50;64.20
71237;DHT22;58984;51.960;5.582;2023-04-01T04:21:32;15.50;64.20
71237;DHT22;58984;51.960;5.582;2023-04-01T04:24:01;15.50;64.20
71237;DHT22;58984;51.960;5.582;2023-04-01T04:26:27;15.50;64.20
71237;DHT22;58984;51.960;5.582;2023-04-01T04:28:54;15.50;64.10
71237;DHT22;58984;51.960;5.582;2023-04-01T04:31:21;15.50;64.30
71237;DHT22;58984;51.960;5.582;2023-04-01T04:33:48;15.50;64.20
71237;DHT22;58984;51.960;5.582;2023-04-01T04:36:13;15.50;64.30
71237;DHT22;58984;51.960;5.582;2023-04-01T04:38:39;15.50;64.30
71237;DHT22;58984;51.960;5.582;2023-04-01T04:41:12;15.50;64.20
71237;DHT22;58984;51.960;5.582;2023-04-01T04:43:39;15.50;64.40
71237;DHT22;58984;51.960;5.582;2023-04-01T04:46:09;15.50;64.30
71237;DHT22;58984;51.960;5.582;2023-04-01T04:48:35;15.50;64.40
71237;DHT22;58984;51.960;5.582;2023-04-01T04:51:01;15.50;64.20
71237;DHT22;58984;51.960;5.582;2023-04-01T04:53:27;15.50;64.30
71237;DHT22;58984;51.960;5.582;2023-04-01T04:55:53;15.50;64.40
71237;DHT22;58984;51.960;5.582;2023-04-01T04:58:19;15.50;64.40
71237;DHT22;58984;51.960;5.582;2023-04-01T05:00:45;15.50;64.30
71237;DHT22;58984;51.960;5.582;2023-04-01T05:03:11;15.50;64.40
71237;DHT22;58984;51.960;5.582;2023-04-01T05:05:38;15.50;64.40
71237;DHT22;58984;51.960;5.582;2023-04-01T05:08:04;15.50;64.40
71237;DHT22;58984;51.960;5.582;2023-04-01T05:10:30;15.50;64.40
71237;DHT22;58984;51.960;5.582;2023-04-01T05:12:57;15.50;64.40
71237;DHT22;58984;51.960;5.582;2023-04-01T05:15:23;15.50;63.80
71237;DHT22;58984;51.960;5.582;2023-04-01T05:17:48;15.50;64.40
71237;DHT22;58984;51.960;5.582;2023-04-01T05:20:14;15.50;64.40
71237;DHT22;58984;51.960;5.582;2023-04-01T05:22:40;15.50;64.30
71237;DHT22;58984;51.960;5.582;2023-04-01T05:25:06;15.50;64.40
71237;DHT22;58984;51.960;5.582;2023-04-01T05:27:32;15.50;64.40
71237;DHT22;58984;51.960;5.582;2023-04-01T05:29:58;15.50;64.40
71237;DHT22;58984;51.960;5.582;2023-04-01T05:32:24;15.50;64.40
71237;DHT22;58984;51.960;5.582;2023-04-01T05:34:53;15.50;64.40
71237;DHT22;58984;51.960;5.582;2023-04-01T05:37:19;15.50;64.40
71237;DHT22;58984;51.960;5.582;2023-04-01T05:39:45;15.50;64.50
71237;DHT22;58984;51.960;5.582;2023-04-01T05:42:10;15.50;64.40
71237;DHT22;58984;51.960;5.582;2023-04-01T05:44:36;15.50;64.40
71237;DHT22;58984;51.960;5.582;2023-04-01T05:47:03;15.50;64.40
71237;DHT22;58984;51.960;5.582;2023-04-01T05:49:29;15.50;64.40
71237;DHT22;58984;51.960;5.582;2023-04-01T05:51:55;15.50;64.40
71237;DHT22;58984;51.960;5.582;2023-04-01T05:54:21;15.50;64.40
71237;DHT22;58984;51.960;5.582;2023-04-01T05:56:47;15.50;64.40
71237;DHT22;58984;51.960;5.582;2023-04-01T05:59:12;15.50;64.40
71237;DHT22;58984;51.960;5.582;2023-04-01T06:01:38;15.50;64.40
71237;DHT22;58984;51.960;5.582;2023-04-01T06:04:04;15.50;64.40
71237;DHT22;58984;51.960;5.582;2023-04-01T06:06:31;15.60;64.50
71237;DHT22;58984;51.960;5.582;2023-04-01T06:09:15;15.50;64.50
71237;DHT22;58984;51.960;5.582;2023-04-01T06:17:41;15.50;65.20
71237;DHT22;58984;51.960;5.582;2023-04-01T06:26:19;15.50;64.40
71237;DHT22;58984;51.960;5.582;2023-04-01T06:28:56;15.50;64.40
71237;DHT22;58984;51.960;5.582;2023-04-01T06:34:25;15.60;64.20
71237;DHT22;58984;51.960;5.582;2023-04-01T06:53:30;15.50;64.40
71237;DHT22;58984;51.960;5.582;2023-04-01T06:56:02;15.50;64.40
71237;DHT22;58984;51.960;5.582;2023-04-01T06:58:35;15.50;64.50
71237;DHT22;58984;51.960;5.582;2023-04-01T07:01:08;15.50;64.40
71237;DHT22;58984;51.960;5.582;2023-04-01T07:03:57;15.50;64.50
71237;DHT22;58984;51.960;5.582;2023-04-01T07:09:22;15.50;64.40
71237;DHT22;58984;51.960;5.582;2023-04-01T07:11:50;15.50;64.40
71237;DHT22;58984;51.960;5.582;2023-04-01T07:16:50;15.50;64.50
71237;DHT22;58984;51.960;5.582;2023-04-01T07:19:42;15.50;64.40
71237;DHT22;58984;51.960;5.582;2023-04-01T07:22:33;15.50;64.40
71237;DHT22;58984;51.960;5.582;2023-04-01T07:28:13;15.60;64.50
71237;DHT22;58984;51.960;5.582;2023-04-01T07:30:53;15.50;64.40
71237;DHT22;58984;51.960;5.582;2023-04-01T07:33:33;15.50;64.40
71237;DHT22;58984;51.960;5.582;2023-04-01T07:36:33;15.60;64.50
71237;DHT22;58984;51.960;5.582;2023-04-01T07:44:24;15.50;64.50
71237;DHT22;58984;51.960;5.582;2023-04-01T07:47:09;15.60;64.50
71237;DHT22;58984;51.960;5.582;2023-04-01T07:57:52;15.50;64.40
71237;DHT22;58984;51.960;5.582;2023-04-01T08:04:00;15.50;64.40
71237;DHT22;58984;51.960;5.582;2023-04-01T08:06:55;15.60;64.50
71237;DHT22;58984;51.960;5.582;2023-04-01T08:15:05;15.60;64.50
71237;DHT22;58984;51.960;5.582;2023-04-01T08:20:28;15.60;64.50
71237;DHT22;58984;51.960;5.582;2023-04-01T08:23:11;15.60;64.50
71237;DHT22;58984;51.960;5.582;2023-04-01T08:25:40;15.60;64.50
71237;DHT22;58984;51.960;5.582;2023-04-01T08:28:10;15.60;64.50
71237;DHT22;58984;51.960;5.582;2023-04-01T08:33:40;15.60;64.50
71237;DHT22;58984;51.960;5.582;2023-04-01T08:36:17;15.70;64.70
71237;DHT22;58984;51.960;5.582;2023-04-01T08:38:53;15.70;64.70
71237;DHT22;58984;51.960;5.582;2023-04-01T08:52:41;15.70;64.70
71237;DHT22;58984;51.960;5.582;2023-04-01T08:55:20;15.70;64.70
71237;DHT22;58984;51.960;5.582;2023-04-01T09:00:32;15.70;64.70
71237;DHT22;58984;51.960;5.582;2023-04-01T09:03:12;15.70;64.70
71237;DHT22;58984;51.960;5.582;2023-04-01T09:08:27;15.70;64.70
71237;DHT22;58984;51.960;5.582;2023-04-01T09:10:57;15.80;64.80
71237;DHT22;58984;51.960;5.582;2023-04-01T09:27:44;15.70;65.10
71237;DHT22;58984;51.960;5.582;2023-04-01T09:30:36;15.80;65.00
71237;DHT22;58984;51.960;5.582;2023-04-01T09:36:26;15.70;65.20
71237;DHT22;58984;51.960;5.582;2023-04-01T09:41:44;15.80;64.80
71237;DHT22;58984;51.960;5.582;2023-04-01T09:44:37;15.80;65.10
71237;DHT22;58984;51.960;5.582;2023-04-01T10:00:55;15.90;64.90
71237;DHT22;58984;51.960;5.582;2023-04-01T10:04:06;15.80;64.80
71237;DHT22;58984;51.960;5.582;2023-04-01T10:06:57;15.80;64.80
71237;DHT22;58984;51.960;5.582;2023-04-01T10:21:19;15.90;65.10
71237;DHT22;58984;51.960;5.582;2023-04-01T10:27:11;16.00;65.20
71237;DHT22;58984;51.960;5.582;2023-04-01T10:54:17;16.10;65.40
71237;DHT22;58984;51.960;5.582;2023-04-01T10:57:02;16.10;65.60
71237;DHT22;58984;51.960;5.582;2023-04-01T11:05:23;16.20;65.20
71237;DHT22;58984;51.960;5.582;2023-04-01T11:08:07;16.20;65.60
71237;DHT22;58984;51.960;5.582;2023-04-01T11:10:49;16.30;65.30
71237;DHT22;58984;51.960;5.582;2023-04-01T11:13:47;16.30;65.40
71237;DHT22;58984;51.960;5.582;2023-04-01T11:32:49;16.50;65.60
71237;DHT22;58984;51.960;5.582;2023-04-01T11:40:49;16.60;65.60
71237;DHT22;58984;51.960;5.582;2023-04-01T11:43:27;16.50;65.50
71237;DHT22;58984;51.960;5.582;2023-04-01T11:46:52;16.50;65.50
71237;DHT22;58984;51.960;5.582;2023-04-01T11:55:19;16.60;65.40
71237;DHT22;58984;51.960;5.582;2023-04-01T12:06:11;16.60;65.40
71237;DHT22;58984;51.960;5.582;2023-04-01T12:09:12;16.70;65.30
71237;DHT22;58984;51.960;5.582;2023-04-01T12:12:06;16.70;65.60
71237;DHT22;58984;51.960;5.582;2023-04-01T12:17:36;16.70;65.30
71237;DHT22;58984;51.960;5.582;2023-04-01T12:28:37;16.70;65.60
71237;DHT22;58984;51.960;5.582;2023-04-01T12:33:58;16.60;65.60
71237;DHT22;58984;51.960;5.582;2023-04-01T12:47:39;16.80;65.50
71237;DHT22;58984;51.960;5.582;2023-04-01T12:50:18;16.70;65.00
71237;DHT22;58984;51.960;5.582;2023-04-01T12:52:55;16.70;65.30
71237;DHT22;58984;51.960;5.582;2023-04-01T12:55:48;16.80;65.40
71237;DHT22;58984;51.960;5.582;2023-04-01T13:01:10;16.80;65.30
71237;DHT22;58984;51.960;5.582;2023-04-01T13:14:24;16.80;65.20
71237;DHT22;58984;51.960;5.582;2023-04-01T13:17:02;16.80;65.40
71237;DHT22;58984;51.960;5.582;2023-04-01T13:28:38;16.90;65.30
71237;DHT22;58984;51.960;5.582;2023-04-01T13:33:34;16.90;65.10
71237;DHT22;58984;51.960;5.582;2023-04-01T13:36:25;16.90;65.10
71237;DHT22;58984;51.960;5.582;2023-04-01T13:39:15;16.90;65.20
71237;DHT22;58984;51.960;5.582;2023-04-01T13:44:39;16.90;65.10
71237;DHT22;58984;51.960;5.582;2023-04-01T13:58:16;16.90;65.20
71237;DHT22;58984;51.960;5.582;2023-04-01T14:00:56;16.90;65.40
71237;DHT22;58984;51.960;5.582;2023-04-01T14:09:10;16.90;65.40
71237;DHT22;58984;51.960;5.582;2023-04-01T14:11:45;17.00;65.40
71237;DHT22;58984;51.960;5.582;2023-04-01T14:19:53;17.00;65.50
71237;DHT22;58984;51.960;5.582;2023-04-01T14:28:31;16.90;65.50
71237;DHT22;58984;51.960;5.582;2023-04-01T14:33:57;16.90;65.40
71237;DHT22;58984;51.960;5.582;2023-04-01T14:36:56;17.00;65.50
71237;DHT22;58984;51.960;5.582;2023-04-01T14:45:12;17.00;65.80
71237;DHT22;58984;51.960;5.582;2023-04-01T14:50:48;17.00;66.00
71237;DHT22;58984;51.960;5.582;2023-04-01T14:55:54;17.00;66.00
71237;DHT22;58984;51.960;5.582;2023-04-01T14:58:22;17.00;66.00
71237;DHT22;58984;51.960;5.582;2023-04-01T15:06:40;16.90;65.90
71237;DHT22;58984;51.960;5.582;2023-04-01T15:09:18;16.90;66.80
71237;DHT22;58984;51.960;5.582;2023-04-01T15:19:55;16.90;65.90
71237;DHT22;58984;51.960;5.582;2023-04-01T15:22:29;16.90;66.00
71237;DHT22;58984;51.960;5.582;2023-04-01T15:25:31;17.00;66.00
71237;DHT22;58984;51.960;5.582;2023-04-01T15:53:12;16.90;66.10
71237;DHT22;58984;51.960;5.582;2023-04-01T15:56:11;16.90;66.00
71237;DHT22;58984;51.960;5.582;2023-04-01T15:58:46;16.90;65.90
71237;DHT22;58984;51.960;5.582;2023-04-01T16:01:35;16.90;65.90
71237;DHT22;58984;51.960;5.582;2023-04-01T16:04:41;16.90;66.00
71237;DHT22;58984;51.960;5.582;2023-04-01T16:10:13;16.90;65.90
71237;DHT22;58984;51.960;5.582;2023-04-01T16:13:14;16.80;66.30
71237;DHT22;58984;51.960;5.582;2023-04-01T16:15:52;16.80;65.90
71237;DHT22;58984;51.960;5.582;2023-04-01T16:18:47;16.90;65.90
71237;DHT22;58984;51.960;5.582;2023-04-01T16:21:35;16.80;65.90
71237;DHT22;58984;51.960;5.582;2023-04-01T16:24:34;16.80;65.80
71237;DHT22;58984;51.960;5.582;2023-04-01T16:27:24;16.80;65.90
71237;DHT22;58984;51.960;5.582;2023-04-01T16:30:00;16.80;65.80
71237;DHT22;58984;51.960;5.582;2023-04-01T16:32:54;16.80;65.80
71237;DHT22;58984;51.960;5.582;2023-04-01T16:38:17;16.80;65.80
71237;DHT22;58984;51.960;5.582;2023-04-01T16:41:17;16.80;65.90
71237;DHT22;58984;51.960;5.582;2023-04-01T16:46:26;16.90;65.90
71237;DHT22;58984;51.960;5.582;2023-04-01T16:54:59;16.80;65.80
71237;DHT22;58984;51.960;5.582;2023-04-01T17:05:48;16.70;65.70
71237;DHT22;58984;51.960;5.582;2023-04-01T17:11:24;16.70;65.50
71237;DHT22;58984;51.960;5.582;2023-04-01T17:14:01;16.70;65.50
71237;DHT22;58984;51.960;5.582;2023-04-01T17:16:36;16.70;65.20
71237;DHT22;58984;51.960;5.582;2023-04-01T17:24:51;16.70;65.30
71237;DHT22;58984;51.960;5.582;2023-04-01T17:30:22;16.70;65.10
71237;DHT22;58984;51.960;5.582;2023-04-01T17:36:14;16.70;65.20
71237;DHT22;58984;51.960;5.582;2023-04-01T17:39:13;16.70;65.10
71237;DHT22;58984;51.960;5.582;2023-04-01T17:42:20;16.70;65.10
71237;DHT22;58984;51.960;5.582;2023-04-01T17:44:56;16.60;64.90
71237;DHT22;58984;51.960;5.582;2023-04-01T18:06:29;16.60;64.50
71237;DHT22;58984;51.960;5.582;2023-04-01T18:17:52;16.50;64.20
71237;DHT22;58984;51.960;5.582;2023-04-01T18:20:33;16.50;64.20
71237;DHT22;58984;51.960;5.582;2023-04-01T18:25:43;16.50;64.10
71237;DHT22;58984;51.960;5.582;2023-04-01T18:28:16;16.40;64.00
71237;DHT22;58984;51.960;5.582;2023-04-01T18:30:45;16.50;64.10
71237;DHT22;58984;51.960;5.582;2023-04-01T18:33:36;16.50;64.00
71237;DHT22;58984;51.960;5.582;2023-04-01T18:39:00;16.40;63.90
71237;DHT22;58984;51.960;5.582;2023-04-01T18:41:59;16.50;63.90
71237;DHT22;58984;51.960;5.582;2023-04-01T18:52:34;16.40;63.70
71237;DHT22;58984;51.960;5.582;2023-04-01T18:57:52;16.40;63.70
71237;DHT22;58984;51.960;5.582;2023-04-01T19:00:27;16.40;63.70
71237;DHT22;58984;51.960;5.582;2023-04-01T19:03:02;16.40;63.60
71237;DHT22;58984;51.960;5.582;2023-04-01T19:05:34;16.40;63.60
71237;DHT22;58984;51.960;5.582;2023-04-01T19:11:26;16.30;63.50
71237;DHT22;58984;51.960;5.582;2023-04-01T19:17:10;16.30;63.30
71237;DHT22;58984;51.960;5.582;2023-04-01T19:27:50;16.30;63.00
71237;DHT22;58984;51.960;5.582;2023-04-01T19:30:33;16.20;62.90
71237;DHT22;58984;51.960;5.582;2023-04-01T19:36:07;16.20;62.80
71237;DHT22;58984;51.960;5.582;2023-04-01T19:38:52;16.20;62.80
71237;DHT22;58984;51.960;5.582;2023-04-01T19:41:36;16.20;62.80
71237;DHT22;58984;51.960;5.582;2023-04-01T20:00:23;16.20;62.70
71237;DHT22;58984;51.960;5.582;2023-04-01T20:03:14;16.20;63.10
71237;DHT22;58984;51.960;5.582;2023-04-01T20:05:59;16.10;62.50
71237;DHT22;58984;51.960;5.582;2023-04-01T20:17:01;16.10;62.20
71237;DHT22;58984;51.960;5.582;2023-04-01T20:19:35;16.00;62.30
71237;DHT22;58984;51.960;5.582;2023-04-01T20:22:05;16.10;62.30
71237;DHT22;58984;51.960;5.582;2023-04-01T20:24:41;16.00;62.10
71237;DHT22;58984;51.960;5.582;2023-04-01T20:27:15;16.00;62.20
71237;DHT22;58984;51.960;5.582;2023-04-01T20:30:34;16.10;62.50
71237;DHT22;58984;51.960;5.582;2023-04-01T20:40:40;16.00;62.20
71237;DHT22;58984;51.960;5.582;2023-04-01T20:51:22;16.00;62.10
71237;DHT22;58984;51.960;5.582;2023-04-01T21:08:02;15.90;61.90
71237;DHT22;58984;51.960;5.582;2023-04-01T21:16:10;15.80;61.80
71237;DHT22;58984;51.960;5.582;2023-04-01T21:21:41;15.80;62.60
71237;DHT22;58984;51.960;5.582;2023-04-01T21:37:53;15.70;61.60
71237;DHT22;58984;51.960;5.582;2023-04-01T22:05:51;15.60;61.30
71237;DHT22;58984;51.960;5.582;2023-04-01T22:08:45;15.60;61.20
71237;DHT22;58984;51.960;5.582;2023-04-01T22:23:07;15.50;61.10
71237;DHT22;58984;51.960;5.582;2023-04-01T22:28:29;15.50;61.00
71237;DHT22;58984;51.960;5.582;2023-04-01T22:31:00;15.50;61.00
71237;DHT22;58984;51.960;5.582;2023-04-01T22:47:57;15.40;60.90
71237;DHT22;58984;51.960;5.582;2023-04-01T22:56:03;15.40;61.10
71237;DHT22;58984;51.960;5.582;2023-04-01T22:58:34;15.40;60.60
71237;DHT22;58984;51.960;5.582;2023-04-01T23:01:07;15.40;60.70
71237;DHT22;58984;51.960;5.582;2023-04-01T23:03:40;15.40;60.60
71237;DHT22;58984;51.960;5.582;2023-04-01T23:06:08;15.40;60.60
71237;DHT22;58984;51.960;5.582;2023-04-01T23:08:53;15.40;60.50
71237;DHT22;58984;51.960;5.582;2023-04-01T23:17:09;15.30;60.40
71237;DHT22;58984;51.960;5.582;2023-04-01T23:20:10;15.30;60.30
71237;DHT22;58984;51.960;5.582;2023-04-01T23:22:59;15.30;60.40
71237;DHT22;58984;51.960;5.582;2023-04-01T23:36:09;15.20;60.30
71237;DHT22;58984;51.960;5.582;2023-04-01T23:38:40;15.20;60.20
71237;DHT22;58984;51.960;5.582;2023-04-01T23:41:16;15.20;60.20
71237;DHT22;58984;51.960;5.582;2023-04-01T23:43:43;15.20;60.20
71237;DHT22;58984;51.960;5.582;2023-04-01T23:46:12;15.20;60.20
71237;DHT22;58984;51.960;5.582;2023-04-01T23:48:41;15.20;60.20
71237;DHT22;58984;51.960;5.582;2023-04-01T23:51:28;15.20;60.20
71237;DHT22;58984;51.960;5.582;2023-04-01T23:54:19;15.10;60.10
71237;DHT22;58984;51.960;5.582;2023-04-01T23:56:51;15.10;60.10
71237;DHT22;58984;51.960;5.582;2023-04-01T23:59:30;15.20;60.00
